createdAt,value
2022-11-05T00:03:28.969Z,10.57
2022-11-05T00:08:49.340Z,13.55
2022-11-05T00:14:13.636Z,7.25
2022-11-05T00:19:16.689Z,8.85
2022-11-05T00:24:36.687Z,6.53
2022-11-05T00:29:38.137Z,8.60
2022-11-05T00:34:39.653Z,5.65
2022-11-05T00:39:41.188Z,6.45
2022-11-05T00:45:01.239Z,5.65
2022-11-05T00:50:02.833Z,12.07
2022-11-05T00:55:04.615Z,6.82
2022-11-05T01:00:06.694Z,11.25
2022-11-05T01:05:08.834Z,9.95
2022-11-05T01:10:10.396Z,12.45
2022-11-05T01:15:11.940Z,5.90
2022-11-05T01:20:13.685Z,6.63
2022-11-05T01:25:15.233Z,13.40
2022-11-05T01:30:16.836Z,5.25
2022-11-05T01:35:18.869Z,8.90
2022-11-05T01:40:22.942Z,13.20
2022-11-05T01:45:28.865Z,8.75
2022-11-05T01:51:01.387Z,9.40
2022-11-05T01:56:13.961Z,9.82
2022-11-05T02:01:16.229Z,8.00
2022-11-05T02:06:17.768Z,11.55
2022-11-05T02:11:19.983Z,8.43
2022-11-05T02:16:55.195Z,10.20
2022-11-05T02:22:18.370Z,10.75
2022-11-05T02:27:55.198Z,6.53
2022-11-05T02:33:21.723Z,13.43
2022-11-05T02:38:52.438Z,6.10
2022-11-05T02:44:02.993Z,8.98
2022-11-05T02:49:32.996Z,10.77
2022-11-05T02:54:57.600Z,6.55
2022-11-05T03:00:08.637Z,11.75
2022-11-05T03:05:10.112Z,12.60
2022-11-05T03:10:22.733Z,14.70
2022-11-05T03:15:30.436Z,8.60
2022-11-05T03:25:45.466Z,10.25
2022-11-05T03:30:50.318Z,9.20
2022-11-05T03:35:58.704Z,7.72
2022-11-05T03:41:04.889Z,9.50
2022-11-05T03:46:11.997Z,10.05
2022-11-05T03:51:24.513Z,8.38
2022-11-05T03:56:48.315Z,8.70
2022-11-05T04:01:50.104Z,8.43
2022-11-05T04:07:10.357Z,7.20
2022-11-05T04:12:30.148Z,6.30
2022-11-05T04:17:31.652Z,6.88
2022-11-05T04:22:53.421Z,10.27
2022-11-05T04:28:00.301Z,8.68
2022-11-05T04:33:13.765Z,6.90
2022-11-05T04:38:18.002Z,6.40
2022-11-05T04:43:19.944Z,6.15
2022-11-05T04:48:21.585Z,4.60
2022-11-05T04:53:23.053Z,7.47
2022-11-05T04:58:24.503Z,7.60
2022-11-05T05:03:25.968Z,5.32
2022-11-05T05:08:27.442Z,9.05
2022-11-05T05:13:28.897Z,12.07
2022-11-05T05:18:30.357Z,6.47
2022-11-05T05:23:31.852Z,11.27
2022-11-05T05:28:33.393Z,9.32
2022-11-05T05:33:34.909Z,9.75
2022-11-05T05:38:36.414Z,5.63
2022-11-05T05:43:37.880Z,9.88
2022-11-05T05:48:39.439Z,10.38
2022-11-05T05:53:40.924Z,7.57
2022-11-05T05:58:42.435Z,8.75
2022-11-05T06:03:43.895Z,10.02
2022-11-05T06:08:45.549Z,9.55
2022-11-05T06:13:46.996Z,7.35
2022-11-05T06:18:48.452Z,11.02
2022-11-05T06:23:50.117Z,8.48
2022-11-05T06:28:51.583Z,8.30
2022-11-05T06:33:53.175Z,11.98
2022-11-05T06:38:54.655Z,8.40
2022-11-05T06:43:56.112Z,8.93
2022-11-05T06:48:57.585Z,10.35
2022-11-05T06:53:59.038Z,8.60
2022-11-05T06:59:00.711Z,9.70
2022-11-05T07:04:02.150Z,5.30
2022-11-05T07:09:04.100Z,8.55
2022-11-05T07:14:05.588Z,6.47
2022-11-05T07:19:07.065Z,5.55
2022-11-05T07:24:08.947Z,5.68
2022-11-05T07:29:10.406Z,10.90
2022-11-05T07:34:11.960Z,6.93
2022-11-05T07:39:13.449Z,11.07
2022-11-05T07:44:14.898Z,7.65
2022-11-05T07:49:16.612Z,5.47
2022-11-05T07:54:18.116Z,7.22
2022-11-05T07:59:19.595Z,8.30
2022-11-05T08:04:21.135Z,9.40
2022-11-05T08:09:22.617Z,8.35
2022-11-05T08:14:24.061Z,8.50
2022-11-05T08:19:25.621Z,8.18
2022-11-05T08:24:27.084Z,8.98
2022-11-05T08:29:28.552Z,9.82
2022-11-05T08:34:30.022Z,12.25
2022-11-05T08:39:31.529Z,10.20
2022-11-05T08:44:32.974Z,7.78
2022-11-05T08:49:34.425Z,7.47
2022-11-05T08:54:36.105Z,9.82
2022-11-05T08:59:37.641Z,7.93
2022-11-05T09:04:39.084Z,8.43
2022-11-05T09:09:40.650Z,7.10
2022-11-05T09:14:42.148Z,6.32
2022-11-05T09:19:43.689Z,6.65
2022-11-05T09:24:45.120Z,10.50
2022-11-05T09:29:46.722Z,11.60
2022-11-05T09:34:49.022Z,5.22
2022-11-05T09:39:50.499Z,8.88
2022-11-05T09:45:08.260Z,6.95
2022-11-05T09:50:25.635Z,9.93
2022-11-05T09:55:32.409Z,10.93
2022-11-05T10:00:34.162Z,6.50
2022-11-05T10:05:38.119Z,5.65
2022-11-05T10:10:47.181Z,8.75
2022-11-05T10:16:02.577Z,4.28
2022-11-05T10:21:05.150Z,7.38
2022-11-05T10:26:11.754Z,7.60
2022-11-05T10:31:17.016Z,7.22
2022-11-05T10:36:28.656Z,8.35
2022-11-05T10:41:35.387Z,13.82
2022-11-05T10:47:08.215Z,8.43
2022-11-05T10:52:42.058Z,9.02
2022-11-05T10:57:43.619Z,8.88
2022-11-05T11:02:52.471Z,7.40
2022-11-05T11:08:23.567Z,7.88
2022-11-05T11:13:28.340Z,10.95
2022-11-05T11:18:40.048Z,9.55
2022-11-05T11:23:52.922Z,9.52
2022-11-05T11:29:00.560Z,9.68
2022-11-05T11:39:16.710Z,15.77
2022-11-05T11:44:26.891Z,10.10
2022-11-05T11:49:42.059Z,9.02
2022-11-05T11:54:43.700Z,8.77
2022-11-05T12:00:07.925Z,11.90
2022-11-05T12:05:17.457Z,9.90
2022-11-05T12:10:23.552Z,10.95
2022-11-05T12:15:41.313Z,11.85
2022-11-05T12:21:04.718Z,11.88
2022-11-05T12:26:40.453Z,10.15
2022-11-05T12:32:23.786Z,7.72
2022-11-05T12:37:48.465Z,9.23
2022-11-05T12:43:12.179Z,7.03
2022-11-05T12:48:46.183Z,10.07
2022-11-05T12:53:56.994Z,8.50
2022-11-05T12:59:10.646Z,9.32
2022-11-05T13:04:24.912Z,6.50
2022-11-05T13:09:31.005Z,6.20
2022-11-05T13:14:41.364Z,7.20
2022-11-05T13:19:45.468Z,14.50
2022-11-05T13:24:55.394Z,11.80
2022-11-05T13:30:02.643Z,7.28
2022-11-05T13:35:08.477Z,9.88
2022-11-05T13:40:13.257Z,4.63
2022-11-05T13:45:36.900Z,6.88
2022-11-05T13:50:59.877Z,7.20
2022-11-05T13:56:28.956Z,5.95
2022-11-05T14:01:56.886Z,8.80
2022-11-05T14:07:31.500Z,6.22
2022-11-05T14:12:37.624Z,4.53
2022-11-05T14:17:57.884Z,5.85
2022-11-05T14:23:17.605Z,6.47
2022-11-05T14:28:34.258Z,11.90
2022-11-05T14:33:39.743Z,7.82
2022-11-05T14:38:50.490Z,8.05
2022-11-05T14:43:58.553Z,13.05
2022-11-05T14:49:09.070Z,9.27
2022-11-05T14:54:24.465Z,10.63
2022-11-05T14:59:28.068Z,9.82
2022-11-05T15:04:32.458Z,9.32
2022-11-05T15:09:40.595Z,10.68
2022-11-05T15:14:51.153Z,12.45
2022-11-05T15:19:53.750Z,18.42
2022-11-05T15:24:56.007Z,9.02
2022-11-05T15:30:03.695Z,10.38
2022-11-05T15:35:23.399Z,8.95
2022-11-05T15:40:27.900Z,7.22
2022-11-05T15:45:29.400Z,10.65
2022-11-05T15:50:30.869Z,11.20
2022-11-05T15:55:32.932Z,11.63
2022-11-05T16:00:36.733Z,10.90
2022-11-05T16:05:43.829Z,10.32
2022-11-05T16:10:50.673Z,14.60
2022-11-05T16:15:56.761Z,8.57
2022-11-05T16:21:06.109Z,11.13
2022-11-05T16:26:55.824Z,10.02
2022-11-05T16:31:52.588Z,12.65
2022-11-05T16:36:55.834Z,9.68
2022-11-05T16:41:57.643Z,9.82
2022-11-05T16:47:00.268Z,11.43
2022-11-05T16:52:01.941Z,14.80
2022-11-05T16:57:05.737Z,13.93
2022-11-05T17:02:11.055Z,14.80
2022-11-05T17:07:12.607Z,25.42
2022-11-05T17:12:14.585Z,14.55
2022-11-05T17:17:16.041Z,13.48
2022-11-05T17:22:17.501Z,9.07
2022-11-05T17:27:18.963Z,13.55
2022-11-05T17:32:20.477Z,16.92
2022-11-05T17:37:23.019Z,15.27
2022-11-05T17:42:24.529Z,14.40
2022-11-05T17:47:26.826Z,21.15
2022-11-05T17:52:28.794Z,16.88
2022-11-05T17:57:30.278Z,25.00
2022-11-05T18:02:33.971Z,16.50
2022-11-05T18:07:35.672Z,19.45
2022-11-05T18:12:37.990Z,24.63
2022-11-05T18:17:39.697Z,25.00
2022-11-05T18:22:41.637Z,18.35
2022-11-05T18:27:43.104Z,18.77
2022-11-05T18:32:45.396Z,20.45
2022-11-05T18:37:46.885Z,15.27
2022-11-05T18:42:48.408Z,18.80
2022-11-05T18:47:49.860Z,19.38
2022-11-05T18:52:51.345Z,25.48
2022-11-05T18:57:52.799Z,19.77
2022-11-05T19:02:54.615Z,23.70
2022-11-05T19:07:56.435Z,17.30
2022-11-05T19:12:57.985Z,18.42
2022-11-05T19:17:59.459Z,13.57
2022-11-05T19:23:00.931Z,14.00
2022-11-05T19:28:02.903Z,17.98
2022-11-05T19:33:04.608Z,18.05
2022-11-05T19:38:06.058Z,18.15
2022-11-05T19:43:08.822Z,15.00
2022-11-05T19:48:13.561Z,13.93
2022-11-05T19:53:19.669Z,14.05
2022-11-05T19:58:21.152Z,15.95
2022-11-05T20:03:22.646Z,15.05
2022-11-05T20:08:24.130Z,16.25
2022-11-05T20:13:25.673Z,12.52
2022-11-05T20:18:27.757Z,16.88
2022-11-05T20:23:31.174Z,15.45
2022-11-05T20:28:34.003Z,12.75
2022-11-05T20:33:35.514Z,12.50
2022-11-05T20:38:36.984Z,12.48
2022-11-05T20:43:41.044Z,13.32
2022-11-05T20:48:44.671Z,12.55
2022-11-05T20:53:46.734Z,12.15
2022-11-05T20:58:48.777Z,13.40
2022-11-05T21:03:50.514Z,15.93
2022-11-05T21:08:52.706Z,11.27
2022-11-05T21:13:54.751Z,12.18
2022-11-05T21:18:56.277Z,11.07
2022-11-05T21:23:57.745Z,13.68
2022-11-05T21:28:59.197Z,8.60
2022-11-05T21:34:00.672Z,8.10
2022-11-05T21:39:03.065Z,14.23
2022-11-05T21:44:04.956Z,10.32
2022-11-05T21:49:06.566Z,13.32
2022-11-05T21:54:28.812Z,13.35
2022-11-05T21:59:48.850Z,11.13
2022-11-05T22:04:52.742Z,14.65
2022-11-05T22:09:54.739Z,13.25
2022-11-05T22:14:56.301Z,14.32
2022-11-05T22:19:58.460Z,14.10
2022-11-05T22:25:00.058Z,13.68
2022-11-05T22:30:01.585Z,11.50
2022-11-05T22:35:03.315Z,12.15
2022-11-05T22:40:05.204Z,11.38
2022-11-05T22:45:07.053Z,12.68
2022-11-05T22:50:08.891Z,13.00
2022-11-05T22:55:10.503Z,11.50
2022-11-05T23:00:18.397Z,14.93
2022-11-05T23:05:19.853Z,12.35
2022-11-05T23:10:40.026Z,14.88
2022-11-05T23:15:59.866Z,13.23
2022-11-05T23:21:23.007Z,11.05
2022-11-05T23:26:43.156Z,15.15
2022-11-05T23:32:03.652Z,12.38
2022-11-05T23:37:24.364Z,10.90
2022-11-05T23:42:44.168Z,17.70
2022-11-05T23:48:04.357Z,14.80
2022-11-05T23:53:05.889Z,12.57
2022-11-05T23:58:08.253Z,12.77
